createdAt,value
2017-07-25T00:00:38.358Z,0
2017-07-25T00:01:38.353Z,0
2017-07-25T00:02:38.351Z,0
2017-07-25T00:03:38.350Z,0
2017-07-25T00:04:38.353Z,0
2017-07-25T00:05:38.353Z,0
2017-07-25T00:06:38.064Z,0
2017-07-25T00:07:38.356Z,0
2017-07-25T00:08:38.355Z,0
2017-07-25T00:09:38.360Z,0
2017-07-25T00:10:38.357Z,0
2017-07-25T00:11:38.357Z,0
2017-07-25T00:12:38.356Z,0
2017-07-25T00:13:38.405Z,0
2017-07-25T00:14:38.362Z,0
2017-07-25T00:15:38.358Z,0
2017-07-25T00:16:38.366Z,0
2017-07-25T00:17:38.360Z,0
2017-07-25T00:18:38.064Z,0
2017-07-25T00:19:38.367Z,0
2017-07-25T00:20:38.063Z,0
2017-07-25T00:21:38.062Z,0
2017-07-25T00:22:38.369Z,0
2017-07-25T00:23:38.070Z,0
2017-07-25T00:24:38.077Z,0
2017-07-25T00:25:38.070Z,0
2017-07-25T00:26:38.367Z,0
2017-07-25T00:27:38.073Z,0
2017-07-25T00:28:38.417Z,0
2017-07-25T00:29:38.364Z,0
2017-07-25T00:30:38.368Z,0
2017-07-25T00:31:38.387Z,0
2017-07-25T00:32:38.072Z,0
2017-07-25T00:33:38.363Z,0
2017-07-25T00:34:38.074Z,0
2017-07-25T00:35:38.372Z,0
2017-07-25T00:36:38.371Z,0
2017-07-25T00:37:38.374Z,0
2017-07-25T00:38:37.782Z,0
2017-07-25T00:39:38.377Z,0
2017-07-25T00:40:38.379Z,0
2017-07-25T00:41:38.094Z,0
2017-07-25T00:42:38.380Z,0
2017-07-25T00:43:38.430Z,0
2017-07-25T00:44:38.082Z,0
2017-07-25T00:45:38.375Z,0
2017-07-25T00:46:38.377Z,0
2017-07-25T00:47:38.388Z,0
2017-07-25T00:48:38.086Z,0
2017-07-25T00:49:38.384Z,0
2017-07-25T00:50:38.394Z,0
2017-07-25T00:51:38.081Z,0
2017-07-25T00:52:38.385Z,0
2017-07-25T00:53:38.393Z,0
2017-07-25T00:54:38.092Z,0
2017-07-25T00:55:38.383Z,0
2017-07-25T00:56:38.399Z,0
2017-07-25T00:57:38.383Z,0
2017-07-25T00:58:42.052Z,0
2017-07-25T00:59:38.088Z,0
2017-07-25T01:00:38.094Z,0
2017-07-25T01:01:38.405Z,0
2017-07-25T01:02:38.091Z,0
2017-07-25T01:03:38.116Z,0
2017-07-25T01:04:38.100Z,0
2017-07-25T01:05:38.388Z,0
2017-07-25T01:06:38.396Z,0
2017-07-25T01:07:38.385Z,0
2017-07-25T01:08:37.789Z,0
2017-07-25T01:09:38.384Z,0
2017-07-25T01:10:38.091Z,0
2017-07-25T01:11:38.385Z,0
2017-07-25T01:12:38.091Z,0
2017-07-25T01:13:38.400Z,0
2017-07-25T01:14:37.787Z,0
2017-07-25T01:15:37.789Z,0
2017-07-25T01:16:38.388Z,0
2017-07-25T01:17:38.391Z,0
2017-07-25T01:18:38.390Z,0
2017-07-25T01:19:38.393Z,0
2017-07-25T01:20:38.427Z,0
2017-07-25T01:21:38.094Z,0
2017-07-25T01:22:38.390Z,0
2017-07-25T01:23:38.398Z,0
2017-07-25T01:24:38.398Z,0
2017-07-25T01:25:38.393Z,0
2017-07-25T01:26:38.391Z,0
2017-07-25T01:27:38.397Z,0
2017-07-25T01:28:38.392Z,0
2017-07-25T01:29:39.394Z,0
2017-07-25T01:30:38.394Z,0
2017-07-25T01:31:38.392Z,0
2017-07-25T01:32:38.398Z,0
2017-07-25T01:33:38.090Z,0
2017-07-25T01:34:38.094Z,0
2017-07-25T01:35:38.390Z,0
2017-07-25T01:36:38.392Z,0
2017-07-25T01:37:38.444Z,0
2017-07-25T01:38:38.393Z,0
2017-07-25T01:39:38.123Z,0
2017-07-25T01:40:38.098Z,0
2017-07-25T01:41:38.102Z,0
2017-07-25T01:42:38.396Z,0
2017-07-25T01:43:38.400Z,0
2017-07-25T01:44:38.162Z,0
2017-07-25T01:45:38.401Z,0
2017-07-25T01:46:38.392Z,0
2017-07-25T01:47:38.411Z,0
2017-07-25T01:48:38.398Z,0
2017-07-25T01:49:38.397Z,0
2017-07-25T01:50:38.398Z,0
2017-07-25T01:51:38.105Z,0
2017-07-25T01:52:37.798Z,0
2017-07-25T01:53:38.436Z,0
2017-07-25T01:54:38.100Z,0
2017-07-25T01:55:38.104Z,0
2017-07-25T01:56:38.112Z,0
2017-07-25T01:57:38.402Z,0
2017-07-25T01:58:38.424Z,0
2017-07-25T01:59:38.851Z,0
2017-07-25T02:00:38.401Z,0
2017-07-25T02:01:38.105Z,0
2017-07-25T02:02:38.098Z,0
2017-07-25T02:03:38.400Z,0
2017-07-25T02:04:38.400Z,0
2017-07-25T02:05:38.406Z,0
2017-07-25T02:06:38.407Z,0
2017-07-25T02:07:38.106Z,0
2017-07-25T02:08:37.803Z,0
2017-07-25T02:09:38.410Z,0
2017-07-25T02:10:38.421Z,0
2017-07-25T02:11:38.409Z,0
2017-07-25T02:12:38.405Z,0
2017-07-25T02:13:38.412Z,0
2017-07-25T02:14:39.508Z,0
2017-07-25T02:15:38.413Z,0
2017-07-25T02:16:38.421Z,0
2017-07-25T02:17:38.416Z,0
2017-07-25T02:18:38.411Z,0
2017-07-25T02:19:38.412Z,0
2017-07-25T02:20:38.417Z,0
2017-07-25T02:21:38.415Z,0
2017-07-25T02:22:38.412Z,0
2017-07-25T02:23:38.419Z,0
2017-07-25T02:24:38.425Z,0
2017-07-25T02:25:38.417Z,0
2017-07-25T02:26:38.412Z,0
2017-07-25T02:27:38.415Z,0
2017-07-25T02:28:38.415Z,0
2017-07-25T02:29:41.067Z,0
2017-07-25T02:30:38.422Z,0
2017-07-25T02:31:38.142Z,0
2017-07-25T02:32:38.418Z,0
2017-07-25T02:33:38.414Z,0
2017-07-25T02:34:38.117Z,0
2017-07-25T02:35:38.421Z,0
2017-07-25T02:36:38.115Z,0
2017-07-25T02:37:37.821Z,0
2017-07-25T02:38:38.116Z,0
2017-07-25T02:39:38.124Z,0
2017-07-25T02:40:38.126Z,0
2017-07-25T02:41:38.122Z,0
2017-07-25T02:42:38.417Z,0
2017-07-25T02:43:38.420Z,0
2017-07-25T02:44:38.159Z,0
2017-07-25T02:45:38.472Z,0
2017-07-25T02:46:38.424Z,0
2017-07-25T02:47:38.430Z,0
2017-07-25T02:48:38.428Z,0
2017-07-25T02:49:38.420Z,0
2017-07-25T02:50:38.125Z,0
2017-07-25T02:51:38.135Z,0
2017-07-25T02:52:38.435Z,0
2017-07-25T02:53:38.428Z,0
2017-07-25T02:54:38.130Z,0
2017-07-25T02:55:38.128Z,0
2017-07-25T02:56:38.423Z,0
2017-07-25T02:57:38.434Z,0
2017-07-25T02:58:38.431Z,0
2017-07-25T02:59:38.131Z,0
2017-07-25T03:00:41.382Z,0
2017-07-25T03:01:38.426Z,0
2017-07-25T03:02:38.432Z,0
2017-07-25T03:03:38.431Z,0
2017-07-25T03:04:38.428Z,0
2017-07-25T03:05:38.446Z,0
2017-07-25T03:06:38.431Z,0
2017-07-25T03:07:38.428Z,0
2017-07-25T03:08:38.429Z,0
2017-07-25T03:09:38.431Z,0
2017-07-25T03:10:38.428Z,0
2017-07-25T03:11:38.139Z,0
2017-07-25T03:12:38.434Z,0
2017-07-25T03:13:38.157Z,0
2017-07-25T03:14:38.129Z,0
2017-07-25T03:15:38.735Z,0
2017-07-25T03:16:38.433Z,4
2017-07-25T03:17:38.434Z,4
2017-07-25T03:18:38.438Z,4
2017-07-25T03:19:38.443Z,4
2017-07-25T03:20:38.441Z,0
2017-07-25T03:21:38.436Z,4
2017-07-25T03:22:38.139Z,4
2017-07-25T03:23:38.163Z,8
2017-07-25T03:24:38.435Z,4
2017-07-25T03:25:38.438Z,8
2017-07-25T03:26:38.444Z,8
2017-07-25T03:27:38.158Z,12
2017-07-25T03:28:38.447Z,16
2017-07-25T03:29:38.443Z,16
2017-07-25T03:30:39.812Z,16
2017-07-25T03:31:38.148Z,24
2017-07-25T03:32:38.443Z,24
2017-07-25T03:33:38.444Z,32
2017-07-25T03:34:38.156Z,32
2017-07-25T03:35:37.853Z,40
2017-07-25T03:36:38.452Z,44
2017-07-25T03:37:38.150Z,48
2017-07-25T03:38:38.444Z,52
2017-07-25T03:39:38.444Z,60
2017-07-25T03:40:38.445Z,64
2017-07-25T03:41:38.449Z,72
2017-07-25T03:42:38.441Z,76
2017-07-25T03:43:38.454Z,84
2017-07-25T03:44:38.449Z,92
2017-07-25T03:45:39.349Z,96
2017-07-25T03:46:38.454Z,96
2017-07-25T03:47:38.444Z,100
2017-07-25T03:48:38.456Z,108
2017-07-25T03:49:38.451Z,116
2017-07-25T03:50:38.162Z,128
2017-07-25T03:51:38.446Z,136
2017-07-25T03:52:38.455Z,144
2017-07-25T03:53:38.448Z,148
2017-07-25T03:54:38.145Z,152
2017-07-25T03:55:38.158Z,152
2017-07-25T03:56:38.452Z,156
2017-07-25T03:57:38.449Z,156
2017-07-25T03:58:38.159Z,156
2017-07-25T03:59:38.448Z,160
2017-07-25T04:00:38.449Z,168
2017-07-25T04:01:37.880Z,180
2017-07-25T04:02:38.148Z,204
2017-07-25T04:03:38.449Z,220
2017-07-25T04:04:38.452Z,240
2017-07-25T04:05:38.452Z,252
2017-07-25T04:06:38.163Z,256
2017-07-25T04:07:37.858Z,252
2017-07-25T04:08:38.483Z,248
2017-07-25T04:09:38.167Z,264
2017-07-25T04:10:38.467Z,296
2017-07-25T04:11:38.451Z,352
2017-07-25T04:12:38.452Z,372
2017-07-25T04:13:38.458Z,408
2017-07-25T04:14:38.452Z,436
2017-07-25T04:15:38.162Z,464
2017-07-25T04:16:38.203Z,484
2017-07-25T04:17:38.456Z,508
2017-07-25T04:18:38.461Z,500
2017-07-25T04:19:38.160Z,444
2017-07-25T04:20:38.164Z,396
2017-07-25T04:21:38.461Z,392
2017-07-25T04:22:38.456Z,412
2017-07-25T04:23:38.170Z,432
2017-07-25T04:24:38.156Z,444
2017-07-25T04:25:38.546Z,444
2017-07-25T04:26:38.457Z,508
2017-07-25T04:27:38.188Z,544
2017-07-25T04:28:38.463Z,588
2017-07-25T04:29:38.467Z,640
2017-07-25T04:30:38.466Z,700
2017-07-25T04:31:42.312Z,676
2017-07-25T04:32:38.177Z,656
2017-07-25T04:33:38.466Z,636
2017-07-25T04:34:38.489Z,600
2017-07-25T04:35:38.465Z,632
2017-07-25T04:36:38.173Z,736
2017-07-25T04:37:38.467Z,844
2017-07-25T04:38:38.466Z,872
2017-07-25T04:39:38.469Z,856
2017-07-25T04:40:38.164Z,808
2017-07-25T04:41:38.179Z,756
2017-07-25T04:42:38.464Z,672
2017-07-25T04:43:38.466Z,668
2017-07-25T04:44:38.471Z,744
2017-07-25T04:45:38.192Z,752
2017-07-25T04:46:38.231Z,736
2017-07-25T04:47:38.468Z,664
2017-07-25T04:48:38.477Z,696
2017-07-25T04:49:38.473Z,692
2017-07-25T04:50:38.170Z,704
2017-07-25T04:51:38.475Z,736
2017-07-25T04:52:38.471Z,756
2017-07-25T04:53:38.184Z,756
2017-07-25T04:54:38.185Z,768
2017-07-25T04:55:38.483Z,844
2017-07-25T04:56:38.474Z,920
2017-07-25T04:57:38.479Z,988
2017-07-25T04:58:38.185Z,1040
2017-07-25T04:59:38.509Z,1084
2017-07-25T05:00:38.196Z,1064
2017-07-25T05:01:40.289Z,1056
2017-07-25T05:02:38.208Z,1020
2017-07-25T05:03:38.483Z,984
2017-07-25T05:04:38.485Z,992
2017-07-25T05:05:38.488Z,1012
2017-07-25T05:06:38.485Z,980
2017-07-25T05:07:38.480Z,924
2017-07-25T05:08:38.486Z,892
2017-07-25T05:09:38.195Z,892
2017-07-25T05:10:38.506Z,944
2017-07-25T05:11:38.198Z,992
2017-07-25T05:12:38.191Z,1076
2017-07-25T05:13:38.201Z,1184
2017-07-25T05:14:38.195Z,1264
2017-07-25T05:15:38.192Z,1316
2017-07-25T05:16:38.251Z,1432
2017-07-25T05:17:38.494Z,1472
2017-07-25T05:18:38.497Z,1500
2017-07-25T05:19:38.212Z,1616
2017-07-25T05:20:38.205Z,1872
2017-07-25T05:21:38.497Z,2224
2017-07-25T05:22:38.522Z,2456
2017-07-25T05:23:38.503Z,2224
2017-07-25T05:24:38.202Z,2000
2017-07-25T05:25:38.500Z,1756
2017-07-25T05:26:38.554Z,1652
2017-07-25T05:27:38.498Z,1504
2017-07-25T05:28:38.219Z,1580
2017-07-25T05:29:38.504Z,1796
2017-07-25T05:30:38.507Z,1868
2017-07-25T05:31:40.405Z,1820
2017-07-25T05:32:38.504Z,1920
2017-07-25T05:33:38.511Z,2256
2017-07-25T05:34:38.502Z,2336
2017-07-25T05:35:38.504Z,2304
2017-07-25T05:36:38.510Z,2280
2017-07-25T05:37:38.237Z,2188
2017-07-25T05:38:38.212Z,2068
2017-07-25T05:39:38.506Z,1952
2017-07-25T05:40:38.511Z,1880
2017-07-25T05:41:38.513Z,1760
2017-07-25T05:42:38.511Z,1784
2017-07-25T05:43:38.514Z,1728
2017-07-25T05:44:38.546Z,1572
2017-07-25T05:45:38.513Z,1520
2017-07-25T05:46:38.210Z,1564
2017-07-25T05:47:39.765Z,1632
2017-07-25T05:48:38.513Z,1764
2017-07-25T05:49:38.238Z,1992
2017-07-25T05:50:38.225Z,2160
2017-07-25T05:51:38.523Z,2248
2017-07-25T05:52:38.531Z,2132
2017-07-25T05:53:38.522Z,1996
2017-07-25T05:54:38.219Z,2004
2017-07-25T05:55:38.532Z,2060
2017-07-25T05:56:38.522Z,2208
2017-07-25T05:57:37.936Z,2508
2017-07-25T05:58:38.524Z,2808
2017-07-25T05:59:37.924Z,2960
2017-07-25T06:00:38.234Z,3144
2017-07-25T06:01:38.526Z,3156
2017-07-25T06:02:39.787Z,3156
2017-07-25T06:03:38.534Z,3292
2017-07-25T06:04:38.532Z,3172
2017-07-25T06:05:38.534Z,2812
2017-07-25T06:06:38.534Z,2344
2017-07-25T06:07:38.540Z,2176
2017-07-25T06:08:38.248Z,2168
2017-07-25T06:09:38.250Z,2068
2017-07-25T06:10:38.543Z,2024
2017-07-25T06:11:38.543Z,2148
2017-07-25T06:12:38.238Z,2484
2017-07-25T06:13:38.248Z,3064
2017-07-25T06:14:38.252Z,3572
2017-07-25T06:15:38.550Z,3728
2017-07-25T06:16:37.941Z,3740
2017-07-25T06:17:38.600Z,3620
2017-07-25T06:18:38.550Z,3508
2017-07-25T06:19:38.550Z,3476
2017-07-25T06:20:38.269Z,3372
2017-07-25T06:21:38.552Z,3404
2017-07-25T06:22:38.552Z,3700
2017-07-25T06:23:38.556Z,3872
2017-07-25T06:24:38.561Z,3924
2017-07-25T06:25:38.260Z,3824
2017-07-25T06:26:38.268Z,3584
2017-07-25T06:27:38.259Z,3252
2017-07-25T06:28:38.563Z,3152
2017-07-25T06:29:38.268Z,3412
2017-07-25T06:30:38.566Z,3636
2017-07-25T06:31:38.565Z,3600
2017-07-25T06:32:39.571Z,3440
2017-07-25T06:33:38.269Z,3384
2017-07-25T06:34:38.569Z,3352
2017-07-25T06:35:38.569Z,3216
2017-07-25T06:36:38.574Z,3060
2017-07-25T06:37:38.273Z,3020
2017-07-25T06:38:38.573Z,2996
2017-07-25T06:39:38.592Z,3124
2017-07-25T06:40:38.580Z,3336
2017-07-25T06:41:38.281Z,3468
2017-07-25T06:42:38.576Z,3564
2017-07-25T06:43:38.585Z,3668
2017-07-25T06:44:38.582Z,3732
2017-07-25T06:45:38.584Z,3704
2017-07-25T06:46:38.004Z,3456
2017-07-25T06:47:42.492Z,3156
2017-07-25T06:48:38.591Z,2864
2017-07-25T06:49:38.297Z,2732
2017-07-25T06:50:38.596Z,2596
2017-07-25T06:51:38.288Z,2528
2017-07-25T06:52:38.624Z,2600
2017-07-25T06:53:38.291Z,2664
2017-07-25T06:54:38.295Z,2600
2017-07-25T06:55:38.601Z,2432
2017-07-25T06:56:38.601Z,2292
2017-07-25T06:57:38.622Z,2168
2017-07-25T06:58:38.612Z,1944
2017-07-25T06:59:38.310Z,1764
2017-07-25T07:00:38.603Z,1624
2017-07-25T07:01:38.313Z,1584
2017-07-25T07:02:38.318Z,1536
2017-07-25T07:03:38.728Z,1536
2017-07-25T07:04:38.611Z,1528
2017-07-25T07:05:38.320Z,1576
2017-07-25T07:06:38.618Z,1644
2017-07-25T07:07:38.623Z,1728
2017-07-25T07:08:38.628Z,1760
2017-07-25T07:09:38.620Z,1884
2017-07-25T07:10:38.626Z,1812
2017-07-25T07:11:38.622Z,1800
2017-07-25T07:12:38.633Z,1836
2017-07-25T07:13:38.623Z,1740
2017-07-25T07:14:38.682Z,1584
2017-07-25T07:15:38.631Z,1560
2017-07-25T07:16:38.329Z,1584
2017-07-25T07:17:38.627Z,1684
2017-07-25T07:18:42.078Z,1768
2017-07-25T07:19:38.634Z,1892
2017-07-25T07:20:38.631Z,1956
2017-07-25T07:21:38.639Z,1968
2017-07-25T07:22:38.639Z,2120
2017-07-25T07:23:38.652Z,2484
2017-07-25T07:24:38.638Z,2980
2017-07-25T07:25:38.637Z,3704
2017-07-25T07:26:38.059Z,4532
2017-07-25T07:27:38.647Z,5312
2017-07-25T07:28:38.343Z,5744
2017-07-25T07:29:38.345Z,6288
2017-07-25T07:30:38.653Z,6764
2017-07-25T07:31:38.055Z,7108
2017-07-25T07:32:38.671Z,7260
2017-07-25T07:33:41.628Z,7376
2017-07-25T07:34:38.358Z,7332
2017-07-25T07:35:38.356Z,7176
2017-07-25T07:36:38.656Z,7004
2017-07-25T07:37:38.667Z,6700
2017-07-25T07:38:38.666Z,6896
2017-07-25T07:39:38.660Z,7488
2017-07-25T07:40:38.659Z,7928
2017-07-25T07:41:38.394Z,7784
2017-07-25T07:42:38.664Z,7920
2017-07-25T07:43:38.882Z,6740
2017-07-25T07:44:38.367Z,4644
2017-07-25T07:45:38.692Z,3816
2017-07-25T07:46:38.752Z,4152
2017-07-25T07:47:38.458Z,4496
2017-07-25T07:48:38.671Z,4856
2017-07-25T07:49:38.736Z,5068
2017-07-25T07:50:38.678Z,5764
2017-07-25T07:51:38.106Z,5776
2017-07-25T07:52:38.695Z,5852
2017-07-25T07:53:38.686Z,5340
2017-07-25T07:54:38.705Z,4996
2017-07-25T07:55:38.702Z,5096
2017-07-25T07:56:38.406Z,5352
2017-07-25T07:57:38.703Z,4896
2017-07-25T07:58:38.709Z,4244
2017-07-25T07:59:39.519Z,4216
2017-07-25T08:00:38.412Z,4204
2017-07-25T08:01:38.407Z,3868
2017-07-25T08:02:38.113Z,3660
2017-07-25T08:03:38.110Z,3412
2017-07-25T08:04:42.857Z,3364
2017-07-25T08:05:38.717Z,3212
2017-07-25T08:06:38.715Z,3128
2017-07-25T08:07:38.422Z,3264
2017-07-25T08:08:38.713Z,3296
2017-07-25T08:09:38.717Z,2932
2017-07-25T08:10:38.720Z,3744
2017-07-25T08:11:38.717Z,4620
2017-07-25T08:12:38.433Z,3748
2017-07-25T08:13:38.427Z,3004
2017-07-25T08:14:38.731Z,2368
2017-07-25T08:15:38.728Z,1976
2017-07-25T08:16:38.733Z,2132
2017-07-25T08:17:38.743Z,2404
2017-07-25T08:18:38.733Z,2484
2017-07-25T08:19:38.935Z,2336
2017-07-25T08:20:38.442Z,2236
2017-07-25T08:21:38.732Z,2540
2017-07-25T08:22:38.147Z,3508
2017-07-25T08:23:38.436Z,4768
2017-07-25T08:24:38.142Z,6240
2017-07-25T08:25:38.499Z,7452
2017-07-25T08:26:38.809Z,8568
2017-07-25T08:27:38.747Z,9476
2017-07-25T08:28:38.767Z,10112
2017-07-25T08:29:38.759Z,10604
2017-07-25T08:30:38.780Z,11216
2017-07-25T08:31:38.456Z,11752
2017-07-25T08:32:38.772Z,11948
2017-07-25T08:33:38.780Z,12268
2017-07-25T08:34:38.769Z,11696
2017-07-25T08:35:38.781Z,11812
2017-07-25T08:36:38.774Z,11932
2017-07-25T08:37:38.775Z,12232
2017-07-25T08:38:38.775Z,12396
2017-07-25T08:39:38.772Z,12428
2017-07-25T08:40:38.480Z,12768
2017-07-25T08:41:38.176Z,13144
2017-07-25T08:42:38.780Z,13532
2017-07-25T08:43:38.487Z,13804
2017-07-25T08:44:38.817Z,13776
2017-07-25T08:45:38.796Z,13904
2017-07-25T08:46:38.789Z,14528
2017-07-25T08:47:38.803Z,14036
2017-07-25T08:48:38.798Z,13628
2017-07-25T08:49:38.499Z,13724
2017-07-25T08:50:38.549Z,13964
2017-07-25T08:51:38.514Z,14504
2017-07-25T08:52:38.808Z,13736
2017-07-25T08:53:38.812Z,13160
2017-07-25T08:54:38.820Z,11460
2017-07-25T08:55:38.840Z,9524
2017-07-25T08:56:38.844Z,7864
2017-07-25T08:57:38.832Z,6296
2017-07-25T08:58:38.834Z,6064
2017-07-25T08:59:38.836Z,6896
2017-07-25T09:00:38.311Z,7544
2017-07-25T09:01:38.836Z,7864
2017-07-25T09:02:38.241Z,7428
2017-07-25T09:03:38.869Z,7204
2017-07-25T09:04:38.936Z,7204
2017-07-25T09:05:38.489Z,7408
2017-07-25T09:06:38.561Z,7364
2017-07-25T09:07:38.561Z,6740
2017-07-25T09:08:38.865Z,6816
2017-07-25T09:09:38.863Z,6820
2017-07-25T09:10:38.573Z,6004
2017-07-25T09:11:38.578Z,6172
2017-07-25T09:12:38.872Z,6800
2017-07-25T09:13:37.972Z,6752
2017-07-25T09:14:38.880Z,6252
2017-07-25T09:15:38.573Z,6112
2017-07-25T09:16:38.875Z,6524
2017-07-25T09:17:38.880Z,7032
2017-07-25T09:18:38.612Z,7224
2017-07-25T09:19:38.609Z,7436
2017-07-25T09:20:39.993Z,6884
2017-07-25T09:21:38.889Z,6828
2017-07-25T09:22:38.928Z,6720
2017-07-25T09:23:38.593Z,6488
2017-07-25T09:24:38.907Z,6600
2017-07-25T09:25:38.300Z,7512
2017-07-25T09:26:38.608Z,7536
2017-07-25T09:27:38.611Z,6724
2017-07-25T09:28:38.906Z,5704
2017-07-25T09:29:38.618Z,4936
2017-07-25T09:30:38.930Z,4160
2017-07-25T09:31:38.617Z,3596
2017-07-25T09:32:38.621Z,3440
2017-07-25T09:33:38.627Z,3592
2017-07-25T09:34:38.939Z,3924
2017-07-25T09:35:39.921Z,4384
2017-07-25T09:36:38.936Z,4540
2017-07-25T09:37:38.935Z,4756
2017-07-25T09:38:38.936Z,4044
2017-07-25T09:39:38.699Z,3452
2017-07-25T09:40:38.945Z,3668
2017-07-25T09:41:38.943Z,3980
2017-07-25T09:42:38.339Z,3652
2017-07-25T09:43:39.006Z,3652
2017-07-25T09:44:38.649Z,3500
2017-07-25T09:45:38.649Z,3084
2017-07-25T09:46:38.675Z,3144
2017-07-25T09:47:38.946Z,3580
2017-07-25T09:48:38.953Z,4208
2017-07-25T09:49:38.656Z,4824
2017-07-25T09:50:39.035Z,5464
2017-07-25T09:51:38.670Z,4976
2017-07-25T09:52:38.982Z,3992
2017-07-25T09:53:38.998Z,3984
2017-07-25T09:54:38.982Z,5740
2017-07-25T09:55:39.006Z,7756
2017-07-25T09:56:38.392Z,8728
2017-07-25T09:57:38.689Z,9276
2017-07-25T09:58:38.984Z,9148
2017-07-25T09:59:38.681Z,9340
2017-07-25T10:00:38.692Z,9440
2017-07-25T10:01:38.989Z,9728
2017-07-25T10:02:38.695Z,9992
2017-07-25T10:03:38.675Z,9676
2017-07-25T10:04:38.412Z,9384
2017-07-25T10:05:38.899Z,9804
2017-07-25T10:06:38.685Z,10104
2017-07-25T10:07:38.714Z,9884
2017-07-25T10:08:38.687Z,9824
2017-07-25T10:09:39.013Z,9788
2017-07-25T10:10:38.412Z,9372
2017-07-25T10:11:38.716Z,8836
2017-07-25T10:12:38.415Z,8816
2017-07-25T10:13:38.867Z,9420
2017-07-25T10:14:39.021Z,9312
2017-07-25T10:15:38.727Z,7816
2017-07-25T10:16:38.729Z,6148
2017-07-25T10:17:38.710Z,5292
2017-07-25T10:18:39.053Z,4156
2017-07-25T10:19:39.086Z,3796
2017-07-25T10:20:41.741Z,3776
2017-07-25T10:21:39.053Z,3704
2017-07-25T10:22:38.745Z,3860
2017-07-25T10:23:39.050Z,4504
2017-07-25T10:24:38.468Z,5600
2017-07-25T10:25:38.775Z,6520
2017-07-25T10:26:39.056Z,7532
2017-07-25T10:27:39.074Z,8144
2017-07-25T10:28:39.071Z,8448
2017-07-25T10:29:38.776Z,8208
2017-07-25T10:30:39.080Z,7812
2017-07-25T10:31:38.783Z,8356
2017-07-25T10:32:39.082Z,8728
2017-07-25T10:33:39.083Z,8212
2017-07-25T10:34:38.469Z,7460
2017-07-25T10:35:38.773Z,6668
2017-07-25T10:36:38.773Z,6240
2017-07-25T10:37:39.093Z,6172
2017-07-25T10:38:39.097Z,6196
2017-07-25T10:39:39.081Z,5872
2017-07-25T10:40:39.113Z,6064
2017-07-25T10:41:39.094Z,5628
2017-07-25T10:42:38.779Z,5060
2017-07-25T10:43:38.775Z,5680
2017-07-25T10:44:38.800Z,6444
2017-07-25T10:45:38.500Z,6292
2017-07-25T10:46:39.097Z,6540
2017-07-25T10:47:38.852Z,6812
2017-07-25T10:48:38.813Z,6908
2017-07-25T10:49:38.863Z,7024
2017-07-25T10:50:38.845Z,7012
2017-07-25T10:51:39.420Z,6756
2017-07-25T10:52:38.800Z,6332
2017-07-25T10:53:39.119Z,5444
2017-07-25T10:54:38.802Z,5088
2017-07-25T10:55:38.828Z,5088
2017-07-25T10:56:39.129Z,5284
2017-07-25T10:57:38.838Z,5352
2017-07-25T10:58:39.127Z,5320
2017-07-25T10:59:38.895Z,5108
2017-07-25T11:00:39.142Z,4604
2017-07-25T11:01:38.539Z,4124
2017-07-25T11:02:39.154Z,4284
2017-07-25T11:03:38.833Z,5056
2017-07-25T11:04:38.835Z,4960
2017-07-25T11:05:39.153Z,4888
2017-07-25T11:06:40.937Z,5316
2017-07-25T11:07:39.147Z,5480
2017-07-25T11:08:39.156Z,5348
2017-07-25T11:09:39.153Z,5248
2017-07-25T11:10:38.859Z,5160
2017-07-25T11:11:39.162Z,5064
2017-07-25T11:12:39.155Z,4768
2017-07-25T11:13:39.157Z,4772
2017-07-25T11:14:39.158Z,5700
2017-07-25T11:15:38.864Z,6532
2017-07-25T11:16:39.162Z,7108
2017-07-25T11:17:38.850Z,7568
2017-07-25T11:18:39.163Z,7908
2017-07-25T11:19:39.173Z,7984
2017-07-25T11:20:39.178Z,7880
2017-07-25T11:21:38.904Z,7628
2017-07-25T11:22:38.865Z,7500
2017-07-25T11:23:39.172Z,7456
2017-07-25T11:24:39.186Z,7540
2017-07-25T11:25:38.265Z,7720
2017-07-25T11:26:39.986Z,7912
2017-07-25T11:27:39.180Z,7864
2017-07-25T11:28:39.188Z,7436
2017-07-25T11:29:39.192Z,7200
2017-07-25T11:30:39.197Z,6944
2017-07-25T11:31:38.276Z,6728
2017-07-25T11:32:39.204Z,6536
2017-07-25T11:33:39.223Z,6288
2017-07-25T11:34:39.212Z,6068
2017-07-25T11:35:38.908Z,6296
2017-07-25T11:36:40.346Z,6744
2017-07-25T11:37:39.215Z,7124
2017-07-25T11:38:38.604Z,7528
2017-07-25T11:39:38.903Z,7872
2017-07-25T11:40:39.203Z,8136
2017-07-25T11:41:38.631Z,8400
2017-07-25T11:42:39.219Z,8444
2017-07-25T11:43:39.220Z,8480
2017-07-25T11:44:38.911Z,8624
2017-07-25T11:45:38.920Z,8732
2017-07-25T11:46:38.933Z,8908
2017-07-25T11:47:39.223Z,9100
2017-07-25T11:48:38.932Z,9260
2017-07-25T11:49:38.976Z,9368
2017-07-25T11:50:38.937Z,9380
2017-07-25T11:51:39.283Z,9332
2017-07-25T11:52:38.927Z,9340
2017-07-25T11:53:39.233Z,9320
2017-07-25T11:54:38.322Z,9280
2017-07-25T11:55:38.925Z,9012
2017-07-25T11:56:39.237Z,8680
2017-07-25T11:57:39.241Z,8488
2017-07-25T11:58:39.244Z,8176
2017-07-25T11:59:38.945Z,7776
2017-07-25T12:00:40.281Z,7764
2017-07-25T12:01:42.454Z,7668
2017-07-25T12:02:38.948Z,7508
2017-07-25T12:03:39.274Z,7380
2017-07-25T12:04:39.274Z,7196
2017-07-25T12:05:39.259Z,7148
2017-07-25T12:06:38.949Z,7040
2017-07-25T12:07:39.254Z,6948
2017-07-25T12:08:38.958Z,7096
2017-07-25T12:09:38.951Z,7348
2017-07-25T12:10:38.651Z,7340
2017-07-25T12:11:39.289Z,7120
2017-07-25T12:12:38.953Z,6992
2017-07-25T12:13:38.661Z,6744
2017-07-25T12:14:38.966Z,6492
2017-07-25T12:15:39.271Z,6180
2017-07-25T12:16:38.977Z,5992
2017-07-25T12:17:38.985Z,5976
2017-07-25T12:18:39.276Z,6080
2017-07-25T12:19:39.287Z,6208
2017-07-25T12:20:38.975Z,6428
2017-07-25T12:21:38.979Z,6680
2017-07-25T12:22:39.090Z,6868
2017-07-25T12:23:39.015Z,7156
2017-07-25T12:24:38.986Z,7536
2017-07-25T12:25:39.005Z,7580
2017-07-25T12:26:39.305Z,7352
2017-07-25T12:27:39.024Z,6772
2017-07-25T12:28:39.309Z,5948
2017-07-25T12:29:39.319Z,5232
2017-07-25T12:30:38.988Z,4872
2017-07-25T12:31:39.303Z,4720
2017-07-25T12:32:38.743Z,4728
2017-07-25T12:33:39.022Z,4696
2017-07-25T12:34:38.802Z,4564
2017-07-25T12:35:39.311Z,4484
2017-07-25T12:36:39.019Z,4448
2017-07-25T12:37:42.572Z,4656
2017-07-25T12:38:39.330Z,5032
2017-07-25T12:39:39.317Z,5332
2017-07-25T12:40:38.725Z,5328
2017-07-25T12:41:39.328Z,5344
2017-07-25T12:42:39.020Z,5436
2017-07-25T12:43:39.046Z,5624
2017-07-25T12:44:39.338Z,5868
2017-07-25T12:45:39.037Z,6100
2017-07-25T12:46:39.323Z,6340
2017-07-25T12:47:39.330Z,6556
2017-07-25T12:48:39.343Z,6760
2017-07-25T12:49:39.335Z,6960
2017-07-25T12:50:39.329Z,7120
2017-07-25T12:51:39.042Z,7220
2017-07-25T12:52:39.032Z,7228
2017-07-25T12:53:39.358Z,7052
2017-07-25T12:54:39.043Z,6676
2017-07-25T12:55:38.749Z,6120
2017-07-25T12:56:39.348Z,5568
2017-07-25T12:57:39.066Z,5164
2017-07-25T12:58:39.050Z,4780
2017-07-25T12:59:39.361Z,4488
2017-07-25T13:00:38.747Z,4432
2017-07-25T13:01:39.055Z,4644
2017-07-25T13:02:39.124Z,4792
2017-07-25T13:03:39.529Z,4884
2017-07-25T13:04:39.370Z,5220
2017-07-25T13:05:40.151Z,5636
2017-07-25T13:06:39.587Z,5916
2017-07-25T13:07:39.515Z,6104
2017-07-25T13:08:40.108Z,6204
2017-07-25T13:09:39.078Z,6268
2017-07-25T13:10:40.132Z,6392
2017-07-25T13:11:39.260Z,6424
2017-07-25T13:12:39.457Z,6440
2017-07-25T13:13:40.587Z,6476
2017-07-25T13:14:40.558Z,6504
2017-07-25T13:15:39.929Z,6524
2017-07-25T13:16:39.420Z,6548
2017-07-25T13:17:40.362Z,6588
2017-07-25T13:18:39.390Z,6616
2017-07-25T13:19:40.123Z,6604
2017-07-25T13:20:38.981Z,6544
2017-07-25T13:21:39.376Z,6424
2017-07-25T13:22:39.103Z,6268
2017-07-25T13:23:39.693Z,6088
2017-07-25T13:24:39.394Z,5908
2017-07-25T13:25:39.787Z,5716
2017-07-25T13:26:39.409Z,5568
2017-07-25T13:27:39.401Z,5452
2017-07-25T13:28:39.401Z,5372
2017-07-25T13:29:39.406Z,5344
2017-07-25T13:30:39.415Z,5364
2017-07-25T13:31:39.409Z,5396
2017-07-25T13:32:39.123Z,5424
2017-07-25T13:33:39.414Z,5412
2017-07-25T13:34:39.439Z,5388
2017-07-25T13:35:39.127Z,5408
2017-07-25T13:36:39.427Z,5476
2017-07-25T13:37:39.138Z,5584
2017-07-25T13:38:43.997Z,5720
2017-07-25T13:39:39.441Z,5744
2017-07-25T13:40:39.139Z,5724
2017-07-25T13:41:39.153Z,5688
2017-07-25T13:42:39.196Z,5708